KTMA/TMA METAR and TAF weather

Enter ICAO airport designator
Station Type Date Time Source
KTMA METAR 2020/07/05 02:55 UTC NOAA

KTMA 050255Z AUTO 00000KT CLR 24/22 A2994 RMK AO2 T02420217 PWINO


Station Type Date Time Source
KTMA Decoded METAR 2020/07/05 02:55 UTC NOAA

Station name not available
Jul 04, 2020 - 10:55 PM EDT / 2020.07.05 0255 UTC
Wind: Calm:0
Sky conditions: clear
Temperature: 75.6 F (24.2 C)
Dew Point: 71.1 F (21.7 C)
Relative Humidity: 85%
Pressure (altimeter): 29.94 in. Hg (1013 hPa)
ob: KTMA 050255Z AUTO 00000KT CLR 24/22 A2994 RMK AO2 T02420217 PWINO
cycle: 3

Station Type Date Time Source
KTMA TAF UTC NOAA

Error!

Example: see airport list